createdAt,value
2023-02-27T00:01:02.037Z,80.75
2023-02-27T00:03:31.049Z,80.97
2023-02-27T00:06:00.224Z,80.66
2023-02-27T00:08:29.219Z,80.78
2023-02-27T00:10:59.687Z,80.41
2023-02-27T00:13:28.684Z,80.70
2023-02-27T00:15:57.863Z,81.50
2023-02-27T00:18:26.797Z,81.63
2023-02-27T00:20:55.959Z,81.52
2023-02-27T00:23:24.983Z,81.61
2023-02-27T00:25:54.841Z,81.45
2023-02-27T00:28:25.502Z,81.58
2023-02-27T00:30:54.861Z,81.59
2023-02-27T00:33:24.657Z,81.34
2023-02-27T00:35:57.865Z,81.94
2023-02-27T00:38:26.981Z,81.45
2023-02-27T00:40:56.178Z,81.17
2023-02-27T00:43:26.724Z,81.50
2023-02-27T00:45:55.927Z,81.32
2023-02-27T00:48:24.799Z,80.94
2023-02-27T00:50:54.013Z,81.23
2023-02-27T00:53:22.969Z,81.27
2023-02-27T00:55:52.181Z,80.47
2023-02-27T00:58:21.100Z,81.17
2023-02-27T01:00:51.595Z,80.75
2023-02-27T01:03:21.444Z,81.21
2023-02-27T01:05:51.977Z,80.71
2023-02-27T01:08:21.313Z,80.59
2023-02-27T01:10:50.412Z,80.38
2023-02-27T01:13:19.293Z,80.26
2023-02-27T01:15:48.511Z,80.62
2023-02-27T01:18:18.781Z,80.54
2023-02-27T01:20:47.947Z,81.00
2023-02-27T01:23:16.785Z,80.72
2023-02-27T01:25:47.193Z,81.25
2023-02-27T01:28:17.051Z,81.15
2023-02-27T01:30:46.723Z,81.92
2023-02-27T01:33:18.471Z,81.61
2023-02-27T01:35:47.687Z,81.21
2023-02-27T01:38:16.540Z,81.22
2023-02-27T01:40:46.085Z,81.89
2023-02-27T01:43:18.059Z,81.38
2023-02-27T01:45:49.048Z,81.84
2023-02-27T01:48:23.540Z,80.95
2023-02-27T01:50:57.604Z,81.08
2023-02-27T01:53:30.157Z,81.06
2023-02-27T01:56:03.492Z,81.35
2023-02-27T01:58:32.612Z,81.59
2023-02-27T02:01:01.800Z,81.62
2023-02-27T02:03:38.789Z,81.92
2023-02-27T02:06:10.177Z,81.32
2023-02-27T02:08:43.847Z,82.13
2023-02-27T02:11:15.045Z,81.98
2023-02-27T02:13:44.561Z,81.40
2023-02-27T02:16:31.522Z,81.86
2023-02-27T02:19:20.414Z,81.84
2023-02-27T02:22:23.777Z,80.95
2023-02-27T02:25:19.235Z,81.78
2023-02-27T02:28:07.636Z,81.72
2023-02-27T02:31:00.308Z,81.75
2023-02-27T02:34:13.351Z,81.80
2023-02-27T02:37:24.066Z,81.33
2023-02-27T02:40:20.203Z,81.38
2023-02-27T02:42:57.636Z,81.63
2023-02-27T02:45:33.185Z,81.88
2023-02-27T02:48:12.972Z,81.54
2023-02-27T02:50:50.430Z,81.59
2023-02-27T02:53:36.576Z,82.02
2023-02-27T02:56:18.904Z,81.82
2023-02-27T02:58:55.613Z,81.76
2023-02-27T03:01:32.345Z,82.16
2023-02-27T03:04:09.572Z,81.34
2023-02-27T03:06:43.960Z,81.31
2023-02-27T03:09:19.288Z,81.57
2023-02-27T03:11:54.781Z,81.85
2023-02-27T03:14:29.795Z,81.70
2023-02-27T03:17:03.361Z,81.97
2023-02-27T03:19:38.956Z,81.97
2023-02-27T03:22:12.155Z,82.28
2023-02-27T03:24:44.239Z,81.78
2023-02-27T03:27:17.438Z,82.08
2023-02-27T03:29:51.799Z,82.21
2023-02-27T03:32:25.796Z,81.69
2023-02-27T03:34:54.812Z,82.52
2023-02-27T03:37:34.174Z,82.74
2023-02-27T03:40:10.156Z,82.44
2023-02-27T03:42:44.488Z,82.80
2023-02-27T03:45:32.026Z,83.39
2023-02-27T03:48:02.060Z,82.85
2023-02-27T03:50:31.553Z,83.22
2023-02-27T03:53:01.153Z,82.57
2023-02-27T03:55:34.603Z,82.45
2023-02-27T03:58:05.935Z,82.90
2023-02-27T04:00:35.826Z,81.94
2023-02-27T04:03:07.099Z,82.54
2023-02-27T04:05:36.817Z,82.46
2023-02-27T04:08:26.400Z,82.55
2023-02-27T04:11:13.012Z,82.28
2023-02-27T04:14:02.245Z,82.09
2023-02-27T04:17:02.673Z,81.93
2023-02-27T04:19:49.204Z,82.14
2023-02-27T04:22:31.594Z,82.28
2023-02-27T04:25:18.314Z,82.25
2023-02-27T04:27:53.992Z,82.20
2023-02-27T04:30:31.480Z,82.42
2023-02-27T04:33:09.037Z,81.70
2023-02-27T04:35:44.752Z,82.47
2023-02-27T04:38:22.079Z,82.34
2023-02-27T04:40:56.703Z,82.24
2023-02-27T04:43:28.829Z,81.76
2023-02-27T04:46:02.681Z,81.30
2023-02-27T04:48:35.704Z,81.33
2023-02-27T04:51:13.464Z,81.30
2023-02-27T04:53:49.094Z,81.23
2023-02-27T04:56:25.932Z,81.36
2023-02-27T04:58:59.368Z,81.12
2023-02-27T05:01:36.689Z,81.18
2023-02-27T05:04:08.306Z,81.02
2023-02-27T05:06:40.831Z,81.74
2023-02-27T05:09:19.665Z,81.19
2023-02-27T05:11:54.541Z,81.10
2023-02-27T05:14:29.557Z,80.95
2023-02-27T05:17:05.941Z,80.88
2023-02-27T05:19:36.339Z,81.47
2023-02-27T05:22:18.985Z,80.81
2023-02-27T05:24:52.612Z,81.08
2023-02-27T05:27:29.898Z,81.38
2023-02-27T05:30:02.333Z,80.45
2023-02-27T05:32:39.890Z,80.54
2023-02-27T05:35:19.409Z,80.95
2023-02-27T05:37:53.312Z,80.71
2023-02-27T05:40:29.123Z,80.82
2023-02-27T05:43:03.250Z,80.91
2023-02-27T05:45:35.874Z,80.77
2023-02-27T05:48:10.501Z,81.27
2023-02-27T05:50:42.744Z,80.90
2023-02-27T05:53:16.304Z,80.97
2023-02-27T05:55:48.370Z,80.69
2023-02-27T05:58:24.957Z,80.78
2023-02-27T06:00:58.545Z,80.21
2023-02-27T06:03:30.481Z,81.00
2023-02-27T06:06:01.871Z,80.56
2023-02-27T06:08:31.386Z,80.03
2023-02-27T06:11:00.246Z,80.03
2023-02-27T06:13:29.681Z,80.10
2023-02-27T06:15:58.502Z,80.73
2023-02-27T06:18:29.070Z,80.62
2023-02-27T06:20:58.083Z,80.63
2023-02-27T06:23:27.246Z,80.58
2023-02-27T06:25:56.176Z,80.16
2023-02-27T06:28:25.465Z,80.59
2023-02-27T06:30:57.280Z,79.67
2023-02-27T06:33:28.184Z,79.85
2023-02-27T06:35:57.166Z,79.94
2023-02-27T06:38:26.346Z,80.47
2023-02-27T06:40:55.361Z,80.45
2023-02-27T06:43:24.562Z,80.24
2023-02-27T06:45:55.895Z,79.94
2023-02-27T06:48:25.288Z,79.82
2023-02-27T06:50:57.351Z,79.78
2023-02-27T06:53:26.893Z,80.48
2023-02-27T06:55:55.766Z,80.07
2023-02-27T06:58:25.795Z,80.37
2023-02-27T07:00:54.886Z,80.26
2023-02-27T07:03:24.044Z,80.44
2023-02-27T07:05:53.021Z,79.55
2023-02-27T07:08:23.588Z,80.16
2023-02-27T07:10:52.320Z,79.76
2023-02-27T07:13:21.572Z,79.50
2023-02-27T07:15:52.316Z,79.44
2023-02-27T07:18:21.608Z,79.41
2023-02-27T07:20:52.181Z,79.42
2023-02-27T07:23:22.775Z,79.13
2023-02-27T07:25:51.562Z,79.25
2023-02-27T07:28:20.889Z,78.99
2023-02-27T07:30:49.830Z,78.94
2023-02-27T07:33:19.042Z,78.99
2023-02-27T07:35:47.970Z,79.24
2023-02-27T07:38:19.017Z,79.38
2023-02-27T07:40:50.182Z,79.14
2023-02-27T07:43:19.357Z,79.03
2023-02-27T07:45:51.023Z,79.36
2023-02-27T07:48:20.621Z,79.24
2023-02-27T07:50:49.488Z,79.22
2023-02-27T07:53:18.713Z,79.16
2023-02-27T07:55:49.335Z,78.93
2023-02-27T07:58:18.574Z,78.77
2023-02-27T08:00:47.445Z,78.04
2023-02-27T08:03:16.690Z,78.77
2023-02-27T08:05:45.624Z,78.31
2023-02-27T08:08:14.792Z,78.60
2023-02-27T08:10:43.641Z,78.47
2023-02-27T08:13:14.316Z,78.72
2023-02-27T08:15:43.003Z,78.39
2023-02-27T08:18:12.100Z,78.32
2023-02-27T08:20:41.101Z,78.27
2023-02-27T08:23:11.894Z,78.08
2023-02-27T08:25:41.294Z,77.99
2023-02-27T08:28:10.408Z,77.91
2023-02-27T08:30:40.810Z,77.36
2023-02-27T08:33:10.100Z,77.46
2023-02-27T08:35:38.992Z,77.91
2023-02-27T08:38:08.209Z,77.75
2023-02-27T08:40:37.281Z,77.03
2023-02-27T08:43:06.541Z,76.55
2023-02-27T08:45:35.384Z,74.89
2023-02-27T08:48:06.317Z,75.04
2023-02-27T08:50:35.177Z,75.03
2023-02-27T08:53:04.337Z,74.96
2023-02-27T08:55:33.349Z,74.60
2023-02-27T08:58:02.609Z,73.73
2023-02-27T09:00:32.537Z,73.19
2023-02-27T09:03:02.233Z,72.92
2023-02-27T09:05:35.308Z,73.32
2023-02-27T09:08:05.925Z,72.63
2023-02-27T09:10:35.006Z,72.49
2023-02-27T09:13:04.098Z,72.14
2023-02-27T09:15:35.603Z,71.67
2023-02-27T09:18:06.885Z,71.57
2023-02-27T09:20:37.260Z,71.28
2023-02-27T09:23:06.553Z,70.30
2023-02-27T09:25:35.623Z,70.45
2023-02-27T09:28:05.120Z,70.08
2023-02-27T09:30:34.299Z,70.16
2023-02-27T09:33:03.443Z,69.62
2023-02-27T09:35:32.396Z,68.72
2023-02-27T09:38:02.941Z,69.11
2023-02-27T09:40:39.222Z,69.07
2023-02-27T09:43:14.215Z,69.18
2023-02-27T09:45:44.690Z,68.58
2023-02-27T09:48:22.263Z,68.23
2023-02-27T09:50:52.589Z,67.79
2023-02-27T09:53:27.981Z,67.77
2023-02-27T09:56:02.015Z,67.63
2023-02-27T09:58:41.560Z,67.37
2023-02-27T10:01:16.034Z,66.76
2023-02-27T10:04:18.443Z,66.46
2023-02-27T10:06:52.372Z,65.71
2023-02-27T10:09:36.023Z,65.77
2023-02-27T10:12:28.053Z,66.10
2023-02-27T10:15:02.924Z,65.44
2023-02-27T10:17:37.211Z,65.48
2023-02-27T10:20:15.439Z,64.89
2023-02-27T10:22:47.542Z,64.86
2023-02-27T10:25:31.319Z,64.63
2023-02-27T10:28:09.973Z,65.63
2023-02-27T10:30:39.282Z,64.92
2023-02-27T10:33:12.579Z,64.43
2023-02-27T10:35:45.050Z,62.84
2023-02-27T10:38:18.235Z,61.88
2023-02-27T10:40:50.476Z,62.61
2023-02-27T10:43:20.814Z,63.71
2023-02-27T10:45:50.297Z,64.96
2023-02-27T10:48:20.606Z,63.96
2023-02-27T10:50:52.346Z,63.69
2023-02-27T10:53:23.755Z,63.79
2023-02-27T10:56:03.293Z,63.44
2023-02-27T10:58:35.192Z,62.44
2023-02-27T11:01:09.332Z,63.63
2023-02-27T11:03:41.686Z,63.32
2023-02-27T11:06:14.987Z,61.75
2023-02-27T11:08:44.004Z,62.13
2023-02-27T11:11:14.547Z,61.00
2023-02-27T11:13:44.385Z,61.82
2023-02-27T11:16:16.782Z,61.48
2023-02-27T11:18:46.967Z,60.85
2023-02-27T11:21:23.201Z,60.80
2023-02-27T11:23:55.924Z,60.82
2023-02-27T11:26:30.534Z,57.69
2023-02-27T11:29:15.085Z,57.23
2023-02-27T11:31:52.134Z,58.32
2023-02-27T11:34:28.353Z,58.29
2023-02-27T11:37:01.546Z,59.17
2023-02-27T11:39:38.955Z,59.08
2023-02-27T11:42:19.097Z,58.57
2023-02-27T11:44:55.890Z,58.31
2023-02-27T11:47:29.557Z,59.65
2023-02-27T11:50:34.797Z,59.47
2023-02-27T11:53:19.481Z,59.15
2023-02-27T11:55:50.077Z,59.60
2023-02-27T11:58:23.874Z,58.45
2023-02-27T12:00:55.981Z,59.81
2023-02-27T12:03:29.062Z,60.61
2023-02-27T12:06:01.536Z,61.26
2023-02-27T12:08:42.271Z,60.05
2023-02-27T12:11:16.032Z,60.84
2023-02-27T12:13:52.119Z,59.06
2023-02-27T12:16:32.253Z,57.58
2023-02-27T12:19:07.306Z,57.48
2023-02-27T12:21:41.398Z,57.79
2023-02-27T12:24:20.853Z,58.20
2023-02-27T12:26:56.203Z,57.85
2023-02-27T12:29:32.930Z,59.06
2023-02-27T12:32:08.663Z,57.96
2023-02-27T12:34:44.115Z,56.34
2023-02-27T12:37:16.537Z,56.31
2023-02-27T12:39:48.082Z,56.41
2023-02-27T12:42:49.890Z,56.06
2023-02-27T12:45:49.510Z,55.10
2023-02-27T12:48:30.444Z,55.53
2023-02-27T12:51:08.860Z,54.08
2023-02-27T12:53:58.393Z,54.36
2023-02-27T12:56:45.126Z,53.27
2023-02-27T12:59:27.836Z,53.19
2023-02-27T13:02:17.087Z,52.97
2023-02-27T13:04:48.888Z,52.58
2023-02-27T13:07:25.934Z,52.47
2023-02-27T13:10:01.256Z,52.78
2023-02-27T13:12:37.592Z,52.36
2023-02-27T13:15:16.403Z,53.11
2023-02-27T13:17:52.226Z,52.41
2023-02-27T13:20:33.765Z,52.40
2023-02-27T13:23:14.892Z,51.26
2023-02-27T13:25:48.268Z,50.70
2023-02-27T13:28:21.952Z,51.54
2023-02-27T13:31:00.680Z,51.08
2023-02-27T13:33:38.657Z,50.20
2023-02-27T13:36:16.768Z,51.04
2023-02-27T13:38:47.973Z,51.70
2023-02-27T13:41:50.265Z,51.50
2023-02-27T13:44:50.247Z,51.71
2023-02-27T13:47:49.843Z,51.04
2023-02-27T13:50:52.553Z,52.27
2023-02-27T13:53:24.640Z,52.15
2023-02-27T13:56:16.027Z,53.31
2023-02-27T13:58:46.332Z,52.37
2023-02-27T14:01:19.942Z,52.93
2023-02-27T14:03:56.711Z,53.04
2023-02-27T14:06:29.097Z,53.71
2023-02-27T14:09:12.746Z,52.92
2023-02-27T14:11:55.124Z,53.53
2023-02-27T14:14:44.427Z,53.64
2023-02-27T14:17:15.643Z,52.99
2023-02-27T14:19:57.004Z,53.26
2023-02-27T14:22:40.198Z,53.40
2023-02-27T14:25:22.090Z,53.64
2023-02-27T14:27:56.960Z,53.89
2023-02-27T14:30:35.793Z,53.92
2023-02-27T14:33:24.008Z,54.18
2023-02-27T14:36:01.300Z,54.67
2023-02-27T14:38:34.806Z,54.87
2023-02-27T14:41:32.348Z,54.40
2023-02-27T14:44:02.298Z,53.77
2023-02-27T14:46:33.479Z,54.24
2023-02-27T14:49:05.594Z,54.16
2023-02-27T14:51:37.253Z,53.58
2023-02-27T14:54:15.525Z,54.60
2023-02-27T14:56:55.985Z,54.45
2023-02-27T14:59:25.969Z,54.47
2023-02-27T15:01:56.733Z,54.66
2023-02-27T15:04:29.080Z,54.48
2023-02-27T15:06:59.334Z,55.20
2023-02-27T15:09:40.631Z,55.10
2023-02-27T15:12:11.486Z,55.22
2023-02-27T15:14:41.870Z,55.24
2023-02-27T15:17:23.931Z,55.81
2023-02-27T15:19:55.481Z,55.83
2023-02-27T15:22:39.097Z,55.57
2023-02-27T15:25:36.348Z,55.78
2023-02-27T15:28:08.414Z,56.34
2023-02-27T15:30:37.719Z,56.36
2023-02-27T15:33:13.897Z,56.47
2023-02-27T15:35:46.266Z,56.63
2023-02-27T15:38:26.912Z,56.77
2023-02-27T15:40:59.389Z,56.74
2023-02-27T15:43:29.795Z,56.69
2023-02-27T15:45:59.501Z,56.95
2023-02-27T15:48:29.519Z,57.00
2023-02-27T15:50:59.581Z,57.35
2023-02-27T15:53:30.714Z,57.58
2023-02-27T15:56:06.124Z,57.36
2023-02-27T15:58:37.857Z,57.63
2023-02-27T16:01:09.500Z,57.47
2023-02-27T16:03:42.839Z,57.76
2023-02-27T16:06:16.809Z,58.19
2023-02-27T16:08:51.659Z,58.27
2023-02-27T16:11:23.552Z,57.96
2023-02-27T16:13:54.334Z,58.17
2023-02-27T16:16:34.956Z,58.46
2023-02-27T16:19:15.220Z,58.40
2023-02-27T16:21:59.864Z,58.33
2023-02-27T16:24:32.833Z,58.95
2023-02-27T16:27:03.636Z,58.87
2023-02-27T16:29:36.846Z,59.17
2023-02-27T16:32:06.624Z,59.09
2023-02-27T16:34:45.591Z,59.48
2023-02-27T16:37:22.484Z,58.95
2023-02-27T16:39:54.803Z,59.65
2023-02-27T16:42:25.910Z,59.52
2023-02-27T16:44:54.892Z,59.75
2023-02-27T16:47:25.533Z,60.51
2023-02-27T16:49:55.513Z,60.76
2023-02-27T16:52:25.242Z,60.81
2023-02-27T16:54:54.138Z,60.62
2023-02-27T16:57:27.765Z,60.56
2023-02-27T17:00:08.098Z,60.69
2023-02-27T17:02:43.051Z,60.87
2023-02-27T17:05:15.136Z,61.25
2023-02-27T17:07:45.759Z,61.08
2023-02-27T17:10:17.829Z,61.24
2023-02-27T17:12:48.037Z,61.26
2023-02-27T17:15:18.845Z,62.32
2023-02-27T17:17:48.170Z,62.24
2023-02-27T17:20:19.773Z,61.82
2023-02-27T17:22:51.614Z,62.18
2023-02-27T17:25:21.172Z,62.45
2023-02-27T17:27:50.368Z,62.08
2023-02-27T17:30:21.092Z,63.20
2023-02-27T17:32:50.367Z,62.76
2023-02-27T17:35:20.498Z,63.52
2023-02-27T17:37:50.379Z,62.88
2023-02-27T17:40:19.596Z,62.47
2023-02-27T17:42:48.751Z,62.42
2023-02-27T17:45:21.114Z,62.65
2023-02-27T17:47:50.784Z,62.37
2023-02-27T17:50:19.812Z,62.33
2023-02-27T17:52:49.153Z,61.98
2023-02-27T17:55:20.373Z,62.48
2023-02-27T17:57:53.533Z,62.57
2023-02-27T18:00:25.793Z,63.26
2023-02-27T18:02:55.422Z,63.62
2023-02-27T18:05:24.788Z,63.07
2023-02-27T18:07:55.578Z,63.48
2023-02-27T18:10:26.328Z,63.31
2023-02-27T18:12:56.131Z,63.25
2023-02-27T18:15:27.181Z,64.32
2023-02-27T18:17:56.808Z,64.24
2023-02-27T18:20:25.716Z,63.58
2023-02-27T18:22:54.984Z,63.82
2023-02-27T18:25:26.506Z,63.66
2023-02-27T18:27:57.071Z,63.97
2023-02-27T18:30:29.914Z,63.49
2023-02-27T18:33:01.206Z,64.46
2023-02-27T18:35:30.218Z,63.85
2023-02-27T18:37:59.448Z,63.88
2023-02-27T18:40:28.565Z,64.01
2023-02-27T18:42:59.325Z,64.17
2023-02-27T18:45:32.121Z,64.76
2023-02-27T18:48:01.549Z,64.20
2023-02-27T18:50:30.912Z,64.88
2023-02-27T18:53:00.926Z,64.83
2023-02-27T18:55:30.457Z,65.34
2023-02-27T18:57:59.620Z,64.54
2023-02-27T19:00:30.487Z,65.46
2023-02-27T19:02:59.976Z,65.77
2023-02-27T19:05:30.827Z,65.81
2023-02-27T19:08:01.040Z,65.05
2023-02-27T19:10:32.639Z,65.44
2023-02-27T19:13:02.649Z,65.19
2023-02-27T19:15:33.398Z,65.68
2023-02-27T19:18:02.831Z,66.01
2023-02-27T19:20:31.850Z,65.79
2023-02-27T19:23:01.256Z,65.79
2023-02-27T19:25:30.278Z,66.57
2023-02-27T19:28:00.401Z,66.32
2023-02-27T19:30:29.838Z,66.69
2023-02-27T19:33:00.398Z,66.43
2023-02-27T19:35:30.106Z,66.65
2023-02-27T19:37:59.176Z,65.80
2023-02-27T19:40:34.496Z,66.15
2023-02-27T19:43:03.861Z,66.35
2023-02-27T19:45:36.945Z,66.19
2023-02-27T19:48:08.648Z,66.17
2023-02-27T19:50:40.202Z,66.75
2023-02-27T19:53:11.650Z,68.16
2023-02-27T19:55:42.812Z,68.03
2023-02-27T19:58:17.048Z,67.58
2023-02-27T20:00:51.732Z,67.04
2023-02-27T20:03:23.405Z,67.05
2023-02-27T20:05:54.707Z,67.67
2023-02-27T20:08:26.285Z,67.67
2023-02-27T20:10:57.312Z,67.17
2023-02-27T20:13:28.334Z,66.79
2023-02-27T20:15:58.648Z,67.89
2023-02-27T20:18:30.614Z,67.26
2023-02-27T20:21:01.855Z,67.01
2023-02-27T20:23:31.785Z,67.19
2023-02-27T20:26:02.769Z,67.47
2023-02-27T20:28:32.226Z,66.66
2023-02-27T20:31:01.810Z,66.89
2023-02-27T20:33:32.322Z,68.19
2023-02-27T20:36:04.435Z,68.64
2023-02-27T20:38:39.256Z,69.31
2023-02-27T20:41:09.737Z,68.76
2023-02-27T20:43:39.292Z,68.84
2023-02-27T20:46:11.626Z,68.87
2023-02-27T20:48:42.528Z,68.79
2023-02-27T20:51:14.571Z,69.12
2023-02-27T20:53:46.971Z,69.81
2023-02-27T20:56:19.153Z,70.59
2023-02-27T20:58:48.314Z,70.72
2023-02-27T21:01:18.238Z,70.31
2023-02-27T21:03:50.995Z,70.45
2023-02-27T21:06:20.653Z,70.60
2023-02-27T21:08:52.788Z,70.09
2023-02-27T21:11:25.437Z,69.70
2023-02-27T21:13:54.418Z,70.05
2023-02-27T21:16:25.433Z,69.56
2023-02-27T21:18:56.690Z,69.46
2023-02-27T21:21:28.942Z,69.61
2023-02-27T21:23:58.688Z,69.51
2023-02-27T21:26:29.610Z,69.99
2023-02-27T21:29:00.829Z,70.31
2023-02-27T21:31:32.824Z,70.47
2023-02-27T21:34:05.602Z,70.58
2023-02-27T21:36:36.554Z,70.30
2023-02-27T21:39:07.765Z,69.76
2023-02-27T21:41:36.969Z,69.95
2023-02-27T21:44:08.170Z,70.03
2023-02-27T21:46:37.402Z,69.98
2023-02-27T21:49:09.015Z,70.77
2023-02-27T21:51:41.213Z,70.89
2023-02-27T21:54:13.585Z,71.63
2023-02-27T21:56:43.543Z,70.73
2023-02-27T21:59:12.585Z,70.77
2023-02-27T22:01:42.119Z,71.15
2023-02-27T22:04:12.535Z,70.94
2023-02-27T22:06:42.018Z,70.58
2023-02-27T22:09:10.882Z,70.46
2023-02-27T22:11:40.981Z,70.78
2023-02-27T22:14:11.273Z,71.58
2023-02-27T22:16:41.066Z,71.11
2023-02-27T22:19:12.747Z,71.10
2023-02-27T22:21:42.476Z,70.63
2023-02-27T22:24:11.401Z,70.29
2023-02-27T22:26:41.674Z,70.70
2023-02-27T22:29:10.581Z,70.73
2023-02-27T22:31:40.183Z,71.00
2023-02-27T22:34:13.993Z,71.58
2023-02-27T22:36:43.420Z,71.27
2023-02-27T22:39:13.709Z,71.14
2023-02-27T22:41:43.987Z,71.34
2023-02-27T22:44:14.982Z,71.47
2023-02-27T22:46:47.109Z,71.79
2023-02-27T22:49:20.337Z,71.85
2023-02-27T22:51:51.616Z,71.74
2023-02-27T22:54:21.801Z,71.59
2023-02-27T22:56:51.824Z,71.34
2023-02-27T22:59:21.103Z,72.14
2023-02-27T23:01:51.407Z,72.58
2023-02-27T23:04:22.351Z,72.07
2023-02-27T23:06:52.906Z,72.15
2023-02-27T23:09:25.371Z,72.37
2023-02-27T23:11:55.281Z,72.90
2023-02-27T23:14:24.536Z,71.78
2023-02-27T23:16:53.830Z,71.82
2023-02-27T23:19:24.111Z,72.06
2023-02-27T23:21:53.300Z,72.88
2023-02-27T23:24:22.192Z,72.38
2023-02-27T23:26:53.240Z,72.86
2023-02-27T23:29:22.432Z,72.25
2023-02-27T23:31:51.797Z,72.48
2023-02-27T23:34:20.680Z,72.25
2023-02-27T23:36:51.501Z,72.59
2023-02-27T23:39:20.698Z,73.13
2023-02-27T23:41:50.407Z,73.85
2023-02-27T23:44:36.670Z,73.60
2023-02-27T23:47:05.870Z,73.72
2023-02-27T23:49:34.785Z,72.43
2023-02-27T23:52:05.684Z,72.27
2023-02-27T23:54:34.636Z,72.62
2023-02-27T23:57:04.752Z,73.01
2023-02-27T23:59:35.788Z,72.61
